createdAt,value
2022-10-14T00:01:11.049Z,98825.62
2022-10-14T00:02:29.859Z,98820.80
2022-10-14T00:03:33.146Z,98823.89
2022-10-14T00:04:34.799Z,98824.57
2022-10-14T00:05:40.817Z,98823.27
2022-10-14T00:06:42.706Z,98823.89
2022-10-14T00:07:46.142Z,98824.53
2022-10-14T00:08:47.991Z,98824.44
2022-10-14T00:09:49.696Z,98820.61
2022-10-14T00:10:51.904Z,98821.78
2022-10-14T00:11:53.537Z,98825.55
2022-10-14T00:12:55.287Z,98827.37
2022-10-14T00:13:59.693Z,98825.92
2022-10-14T00:15:01.800Z,98827.63
2022-10-14T00:16:05.405Z,98828.43
2022-10-14T00:17:07.076Z,98824.34
2022-10-14T00:18:09.981Z,98825.00
2022-10-14T00:19:12.823Z,98823.74
2022-10-14T00:20:14.574Z,98824.55
2022-10-14T00:21:17.145Z,98824.99
2022-10-14T00:22:18.854Z,98825.03
2022-10-14T00:23:20.620Z,98820.95
2022-10-14T00:24:22.498Z,98823.64
2022-10-14T00:25:26.169Z,98821.81
2022-10-14T00:26:31.241Z,98819.61
2022-10-14T00:27:32.964Z,98818.21
2022-10-14T00:28:36.400Z,98819.66
2022-10-14T00:29:38.676Z,98819.26
2022-10-14T00:30:40.517Z,98822.02
2022-10-14T00:31:43.584Z,98818.13
2022-10-14T00:32:45.339Z,98821.29
2022-10-14T00:33:47.655Z,98818.75
2022-10-14T00:34:49.678Z,98817.23
2022-10-14T00:36:00.448Z,98817.64
2022-10-14T00:37:05.844Z,98814.63
2022-10-14T00:38:08.078Z,98814.23
2022-10-14T00:39:11.311Z,98815.89
2022-10-14T00:40:13.780Z,98813.55
2022-10-14T00:41:19.983Z,98811.91
2022-10-14T00:42:21.637Z,98813.83
2022-10-14T00:43:26.695Z,98812.64
2022-10-14T00:44:28.241Z,98809.77
2022-10-14T00:45:30.943Z,98811.65
2022-10-14T00:46:38.304Z,98808.20
2022-10-14T00:47:43.891Z,98811.78
2022-10-14T00:48:46.019Z,98806.50
2022-10-14T00:49:47.920Z,98806.52
2022-10-14T00:50:54.715Z,98807.05
2022-10-14T00:52:03.240Z,98804.94
2022-10-14T00:53:06.359Z,98804.21
2022-10-14T00:54:12.104Z,98803.67
2022-10-14T00:55:17.778Z,98803.52
2022-10-14T00:56:29.815Z,98802.60
2022-10-14T00:57:32.268Z,98801.27
2022-10-14T00:58:34.010Z,98799.17
2022-10-14T00:59:36.646Z,98800.85
2022-10-14T01:00:39.936Z,98800.36
2022-10-14T01:01:41.761Z,98797.08
2022-10-14T01:02:43.438Z,98797.23
2022-10-14T01:03:45.092Z,98796.70
2022-10-14T01:04:46.939Z,98795.45
2022-10-14T01:05:59.079Z,98794.91
2022-10-14T01:07:15.558Z,98795.05
2022-10-14T01:08:33.699Z,98793.52
2022-10-14T01:09:47.295Z,98788.30
2022-10-14T01:11:13.026Z,98788.75
2022-10-14T01:12:28.730Z,98788.40
2022-10-14T01:13:41.967Z,98786.14
2022-10-14T01:15:05.299Z,98787.52
2022-10-14T01:16:23.184Z,98786.73
2022-10-14T01:17:31.299Z,98788.61
2022-10-14T01:19:06.120Z,98787.31
2022-10-14T01:20:51.602Z,98785.49
2022-10-14T01:22:22.492Z,98783.50
2022-10-14T01:23:42.682Z,98781.45
2022-10-14T01:25:02.895Z,98778.84
2022-10-14T01:26:29.041Z,98778.82
2022-10-14T01:27:36.490Z,98774.44
2022-10-14T01:29:12.232Z,98773.40
2022-10-14T01:30:25.370Z,98773.17
2022-10-14T01:31:33.822Z,98771.02
2022-10-14T01:32:47.116Z,98770.32
2022-10-14T01:33:56.029Z,98770.36
2022-10-14T01:35:02.520Z,98773.10
2022-10-14T01:36:10.106Z,98772.57
2022-10-14T01:37:19.441Z,98770.03
2022-10-14T01:38:30.846Z,98769.89
2022-10-14T01:39:43.214Z,98769.69
2022-10-14T01:41:22.882Z,98766.48
2022-10-14T01:42:32.402Z,98768.33
2022-10-14T01:43:37.726Z,98767.52
2022-10-14T01:44:46.190Z,98768.96
2022-10-14T01:45:50.549Z,98765.77
2022-10-14T01:46:55.678Z,98765.48
2022-10-14T01:48:00.811Z,98764.59
2022-10-14T01:49:19.758Z,98764.44
2022-10-14T01:50:25.605Z,98762.42
2022-10-14T01:51:36.601Z,98760.27
2022-10-14T01:52:46.094Z,98762.05
2022-10-14T01:53:57.316Z,98762.33
2022-10-14T01:55:06.379Z,98761.84
2022-10-14T01:56:12.127Z,98761.27
2022-10-14T01:57:22.122Z,98760.19
2022-10-14T01:58:29.171Z,98765.80
2022-10-14T01:59:34.832Z,98765.20
2022-10-14T02:00:36.558Z,98765.31
2022-10-14T02:01:38.350Z,98763.59
2022-10-14T02:02:41.314Z,98766.86
2022-10-14T02:03:46.067Z,98765.98
2022-10-14T02:04:47.798Z,98766.61
2022-10-14T02:06:06.769Z,98766.26
2022-10-14T02:07:23.634Z,98764.42
2022-10-14T02:08:44.347Z,98765.48
2022-10-14T02:09:58.893Z,98763.20
2022-10-14T02:11:12.649Z,98759.91
2022-10-14T02:12:33.867Z,98758.95
2022-10-14T02:14:03.869Z,98759.91
2022-10-14T02:15:21.017Z,98755.04
2022-10-14T02:16:34.057Z,98757.71
2022-10-14T02:17:52.690Z,98753.45
2022-10-14T02:19:08.923Z,98753.64
2022-10-14T02:20:27.519Z,98749.29
2022-10-14T02:21:45.394Z,98753.48
2022-10-14T02:23:07.140Z,98751.83
2022-10-14T02:24:11.613Z,98752.67
2022-10-14T02:25:21.519Z,98752.48
2022-10-14T02:26:26.637Z,98750.77
2022-10-14T02:27:31.394Z,98747.23
2022-10-14T02:28:34.993Z,98747.27
2022-10-14T02:29:41.371Z,98745.31
2022-10-14T02:30:57.918Z,98743.44
2022-10-14T02:32:04.592Z,98741.27
2022-10-14T02:33:07.632Z,98741.88
2022-10-14T02:34:14.643Z,98742.84
2022-10-14T02:35:21.708Z,98739.52
2022-10-14T02:36:27.312Z,98741.07
2022-10-14T02:37:31.315Z,98741.30
2022-10-14T02:38:35.521Z,98738.96
2022-10-14T02:39:44.078Z,98739.73
2022-10-14T02:40:49.872Z,98744.85
2022-10-14T02:41:51.732Z,98742.15
2022-10-14T02:42:53.546Z,98741.48
2022-10-14T02:43:55.273Z,98740.80
2022-10-14T02:45:01.214Z,98741.77
2022-10-14T02:46:04.662Z,98743.74
2022-10-14T02:47:06.500Z,98745.39
2022-10-14T02:48:09.629Z,98744.20
2022-10-14T02:49:12.268Z,98741.19
2022-10-14T02:50:14.068Z,98743.27
2022-10-14T02:51:16.418Z,98744.92
2022-10-14T02:52:19.866Z,98742.24
2022-10-14T02:53:21.897Z,98741.27
2022-10-14T02:54:23.765Z,98742.67
2022-10-14T02:55:25.497Z,98739.80
2022-10-14T02:56:27.155Z,98736.38
2022-10-14T02:57:28.802Z,98734.79
2022-10-14T02:58:31.561Z,98736.48
2022-10-14T02:59:33.255Z,98736.70
2022-10-14T03:00:35.363Z,98738.36
2022-10-14T03:01:37.870Z,98735.48
2022-10-14T03:02:40.498Z,98731.66
2022-10-14T03:03:42.641Z,98733.64
2022-10-14T03:04:44.296Z,98732.73
2022-10-14T03:05:46.237Z,98731.39
2022-10-14T03:06:48.578Z,98731.61
2022-10-14T03:07:50.296Z,98730.24
2022-10-14T03:08:53.567Z,98735.48
2022-10-14T03:09:57.102Z,98728.40
2022-10-14T03:10:58.990Z,98728.35
2022-10-14T03:12:00.969Z,98725.42
2022-10-14T03:13:04.092Z,98725.59
2022-10-14T03:14:10.375Z,98726.59
2022-10-14T03:15:13.111Z,98723.98
2022-10-14T03:16:14.997Z,98722.05
2022-10-14T03:17:18.864Z,98723.83
2022-10-14T03:18:21.701Z,98719.73
2022-10-14T03:19:23.882Z,98723.23
2022-10-14T03:20:27.990Z,98719.69
2022-10-14T03:21:31.180Z,98719.29
2022-10-14T03:22:33.857Z,98719.99
2022-10-14T03:23:35.618Z,98719.77
2022-10-14T03:24:37.608Z,98719.73
2022-10-14T03:25:58.398Z,98724.61
2022-10-14T03:27:03.716Z,98722.20
2022-10-14T03:28:05.856Z,98725.06
2022-10-14T03:29:13.934Z,98724.23
2022-10-14T03:30:35.673Z,98719.98
2022-10-14T03:31:42.846Z,98722.49
2022-10-14T03:33:04.231Z,98724.27
2022-10-14T03:34:22.925Z,98721.94
2022-10-14T03:35:30.530Z,98726.08
2022-10-14T03:36:32.287Z,98729.21
2022-10-14T03:37:34.496Z,98723.36
2022-10-14T03:38:37.283Z,98723.21
2022-10-14T03:39:42.478Z,98726.40
2022-10-14T03:40:44.495Z,98724.23
2022-10-14T03:41:47.321Z,98723.59
2022-10-14T03:42:51.074Z,98723.02
2022-10-14T03:43:55.834Z,98722.02
2022-10-14T03:44:57.792Z,98722.79
2022-10-14T03:46:02.463Z,98722.26
2022-10-14T03:47:04.794Z,98721.09
2022-10-14T03:48:07.329Z,98722.98
2022-10-14T03:49:13.881Z,98723.69
2022-10-14T03:50:15.725Z,98722.02
2022-10-14T03:51:21.458Z,98723.42
2022-10-14T03:52:23.469Z,98722.84
2022-10-14T03:53:35.001Z,98724.57
2022-10-14T03:54:36.717Z,98728.45
2022-10-14T03:55:38.598Z,98725.60
2022-10-14T03:56:40.419Z,98729.20
2022-10-14T03:57:43.179Z,98726.63
2022-10-14T03:58:44.909Z,98727.92
2022-10-14T03:59:47.855Z,98728.27
2022-10-14T04:00:49.562Z,98728.77
2022-10-14T04:01:59.937Z,98729.09
2022-10-14T04:03:02.920Z,98729.88
2022-10-14T04:04:08.768Z,98726.92
2022-10-14T04:05:11.653Z,98726.70
2022-10-14T04:06:14.694Z,98727.77
2022-10-14T04:07:17.344Z,98720.94
2022-10-14T04:08:24.192Z,98723.43
2022-10-14T04:09:30.588Z,98722.23
2022-10-14T04:10:32.803Z,98718.52
2022-10-14T04:11:34.575Z,98716.46
2022-10-14T04:12:40.355Z,98717.18
2022-10-14T04:13:46.439Z,98711.74
2022-10-14T04:14:48.237Z,98709.08
2022-10-14T04:15:50.117Z,98709.36
2022-10-14T04:16:58.702Z,98713.73
2022-10-14T04:18:00.370Z,98716.29
2022-10-14T04:19:03.410Z,98715.13
2022-10-14T04:20:06.013Z,98713.42
2022-10-14T04:21:11.984Z,98712.34
2022-10-14T04:22:14.182Z,98710.23
2022-10-14T04:23:16.038Z,98709.75
2022-10-14T04:24:19.677Z,98704.70
2022-10-14T04:25:25.581Z,98703.17
2022-10-14T04:26:30.821Z,98706.62
2022-10-14T04:27:32.976Z,98704.26
2022-10-14T04:28:39.494Z,98704.47
2022-10-14T04:29:48.660Z,98701.20
2022-10-14T04:30:56.532Z,98701.37
2022-10-14T04:32:01.749Z,98697.24
2022-10-14T04:33:04.017Z,98696.67
2022-10-14T04:34:06.027Z,98697.27
2022-10-14T04:35:11.261Z,98696.45
2022-10-14T04:36:15.652Z,98699.45
2022-10-14T04:37:17.732Z,98698.69
2022-10-14T04:38:38.986Z,98696.11
2022-10-14T04:39:42.114Z,98696.14
2022-10-14T04:40:46.956Z,98696.43
2022-10-14T04:41:49.030Z,98692.83
2022-10-14T04:42:56.905Z,98694.98
2022-10-14T04:44:02.177Z,98692.13
2022-10-14T04:45:08.093Z,98691.21
2022-10-14T04:46:17.585Z,98690.41
2022-10-14T04:47:20.166Z,98687.13
2022-10-14T04:48:29.273Z,98685.74
2022-10-14T04:49:31.629Z,98686.81
2022-10-14T04:50:51.343Z,98686.32
2022-10-14T04:52:12.002Z,98684.08
2022-10-14T04:53:22.283Z,98683.44
2022-10-14T04:54:32.559Z,98683.07
2022-10-14T04:55:35.762Z,98682.28
2022-10-14T04:56:38.109Z,98681.00
2022-10-14T04:57:40.525Z,98679.11
2022-10-14T04:58:42.422Z,98678.23
2022-10-14T04:59:44.140Z,98677.20
2022-10-14T05:00:58.106Z,98677.05
2022-10-14T05:02:09.740Z,98675.61
2022-10-14T05:03:24.736Z,98674.16
2022-10-14T05:04:26.787Z,98672.62
2022-10-14T05:05:28.720Z,98670.58
2022-10-14T05:06:31.987Z,98670.53
2022-10-14T05:07:37.129Z,98666.24
2022-10-14T05:08:52.992Z,98661.83
2022-10-14T05:09:56.664Z,98666.11
2022-10-14T05:11:05.072Z,98665.25
2022-10-14T05:12:19.583Z,98664.66
2022-10-14T05:13:25.226Z,98668.04
2022-10-14T05:14:32.390Z,98666.42
2022-10-14T05:15:43.446Z,98669.23
2022-10-14T05:16:46.898Z,98669.45
2022-10-14T05:17:49.569Z,98671.66
2022-10-14T05:18:53.592Z,98671.83
2022-10-14T05:19:55.226Z,98674.38
2022-10-14T05:21:00.551Z,98673.67
2022-10-14T05:22:13.155Z,98673.14
2022-10-14T05:23:18.668Z,98671.77
2022-10-14T05:24:20.677Z,98672.23
2022-10-14T05:25:22.494Z,98670.89
2022-10-14T05:26:24.929Z,98670.10
2022-10-14T05:27:28.171Z,98669.63
2022-10-14T05:28:29.946Z,98664.77
2022-10-14T05:29:32.124Z,98663.55
2022-10-14T05:30:35.012Z,98666.73
2022-10-14T05:31:38.826Z,98666.61
2022-10-14T05:32:52.607Z,98662.48
2022-10-14T05:33:54.978Z,98661.70
2022-10-14T05:34:56.747Z,98659.94
2022-10-14T05:36:02.863Z,98662.68
2022-10-14T05:37:06.266Z,98662.67
2022-10-14T05:38:14.535Z,98662.77
2022-10-14T05:39:17.517Z,98666.59
2022-10-14T05:40:19.690Z,98662.02
2022-10-14T05:41:21.782Z,98664.05
2022-10-14T05:42:23.903Z,98664.06
2022-10-14T05:43:32.199Z,98663.11
2022-10-14T05:44:34.674Z,98663.74
2022-10-14T05:45:37.743Z,98662.82
2022-10-14T05:46:39.466Z,98663.95
2022-10-14T05:47:44.551Z,98661.49
2022-10-14T05:48:49.232Z,98666.13
2022-10-14T05:49:51.048Z,98662.98
2022-10-14T05:50:52.957Z,98666.88
2022-10-14T05:51:55.404Z,98668.65
2022-10-14T05:52:57.957Z,98667.98
2022-10-14T05:54:03.446Z,98667.20
2022-10-14T05:55:06.109Z,98670.27
2022-10-14T05:56:10.325Z,98670.41
2022-10-14T05:57:13.298Z,98671.14
2022-10-14T05:58:15.019Z,98674.70
2022-10-14T05:59:19.549Z,98674.95
2022-10-14T06:00:25.580Z,98676.69
2022-10-14T06:01:28.399Z,98672.79
2022-10-14T06:02:31.249Z,98671.20
2022-10-14T06:03:33.041Z,98677.91
2022-10-14T06:04:35.298Z,98675.47
2022-10-14T06:05:38.405Z,98675.92
2022-10-14T06:06:40.265Z,98677.30
2022-10-14T06:07:43.300Z,98680.11
2022-10-14T06:08:45.377Z,98679.02
2022-10-14T06:09:47.099Z,98680.40
2022-10-14T06:10:49.433Z,98682.30
2022-10-14T06:11:51.090Z,98688.91
2022-10-14T06:12:52.783Z,98686.64
2022-10-14T06:13:54.812Z,98685.85
2022-10-14T06:14:56.845Z,98688.54
2022-10-14T06:16:06.642Z,98684.55
2022-10-14T06:17:08.324Z,98684.30
2022-10-14T06:18:10.345Z,98685.01
2022-10-14T06:19:12.966Z,98684.95
2022-10-14T06:20:14.859Z,98684.16
2022-10-14T06:21:16.564Z,98684.65
2022-10-14T06:22:18.257Z,98685.31
2022-10-14T06:23:20.206Z,98682.79
2022-10-14T06:24:21.932Z,98681.67
2022-10-14T06:25:23.551Z,98682.89
2022-10-14T06:26:25.233Z,98680.66
2022-10-14T06:27:27.794Z,98680.11
2022-10-14T06:28:29.516Z,98682.93
2022-10-14T06:29:38.020Z,98682.16
2022-10-14T06:30:40.238Z,98684.01
2022-10-14T06:31:41.918Z,98680.70
2022-10-14T06:32:43.787Z,98684.27
2022-10-14T06:33:45.447Z,98681.27
2022-10-14T06:34:47.087Z,98681.29
2022-10-14T06:35:48.931Z,98685.19
2022-10-14T06:36:50.717Z,98683.14
2022-10-14T06:37:52.460Z,98683.15
2022-10-14T06:38:54.646Z,98686.39
2022-10-14T06:39:56.433Z,98689.34
2022-10-14T06:40:58.543Z,98690.35
2022-10-14T06:42:00.191Z,98693.96
2022-10-14T06:43:03.060Z,98689.17
2022-10-14T06:44:04.734Z,98689.84
2022-10-14T06:45:07.317Z,98686.33
2022-10-14T06:46:09.296Z,98679.97
2022-10-14T06:47:11.023Z,98682.25
2022-10-14T06:48:12.980Z,98680.83
2022-10-14T06:49:14.825Z,98682.61
2022-10-14T06:50:16.489Z,98682.05
2022-10-14T06:51:18.644Z,98681.84
2022-10-14T06:52:20.623Z,98680.97
2022-10-14T06:53:22.497Z,98680.35
2022-10-14T06:54:24.280Z,98680.64
2022-10-14T06:55:26.317Z,98683.19
2022-10-14T06:56:27.954Z,98678.47
2022-10-14T06:57:29.738Z,98680.58
2022-10-14T06:58:32.925Z,98680.04
2022-10-14T06:59:35.044Z,98680.54
2022-10-14T07:00:37.395Z,98679.04
2022-10-14T07:01:39.382Z,98679.54
2022-10-14T07:02:41.588Z,98678.15
2022-10-14T07:03:43.227Z,98674.95
2022-10-14T07:04:44.863Z,98680.64
2022-10-14T07:05:46.738Z,98678.58
2022-10-14T07:06:48.467Z,98681.14
2022-10-14T07:07:50.204Z,98681.21
2022-10-14T07:08:51.878Z,98683.21
2022-10-14T07:09:54.175Z,98680.91
2022-10-14T07:10:56.310Z,98682.98
2022-10-14T07:11:58.160Z,98676.88
2022-10-14T07:12:59.828Z,98682.33
2022-10-14T07:14:01.566Z,98675.04
2022-10-14T07:15:05.049Z,98678.15
2022-10-14T07:16:06.886Z,98677.63
2022-10-14T07:17:09.325Z,98678.50
2022-10-14T07:18:10.998Z,98679.73
2022-10-14T07:19:13.069Z,98680.08
2022-10-14T07:20:14.833Z,98682.39
2022-10-14T07:21:16.498Z,98681.52
2022-10-14T07:22:18.145Z,98680.83
2022-10-14T07:23:19.878Z,98680.83
2022-10-14T07:24:21.536Z,98680.48
2022-10-14T07:25:23.187Z,98682.34
2022-10-14T07:26:25.108Z,98682.37
2022-10-14T07:27:26.838Z,98681.24
2022-10-14T07:28:28.879Z,98682.83
2022-10-14T07:29:30.745Z,98685.43
2022-10-14T07:30:33.000Z,98688.73
2022-10-14T07:31:35.769Z,98688.31
2022-10-14T07:32:37.612Z,98689.20
2022-10-14T07:33:40.390Z,98687.63
2022-10-14T07:34:42.023Z,98686.16
2022-10-14T07:35:43.628Z,98686.13
2022-10-14T07:36:45.370Z,98689.16
2022-10-14T07:37:48.912Z,98690.81
2022-10-14T07:38:50.970Z,98691.94
2022-10-14T07:39:52.716Z,98693.15
2022-10-14T07:41:03.641Z,98695.81
2022-10-14T07:42:05.395Z,98693.73
2022-10-14T07:43:07.192Z,98696.56
2022-10-14T07:44:10.794Z,98693.87
2022-10-14T07:45:18.560Z,98694.23
2022-10-14T07:46:29.745Z,98691.65
2022-10-14T07:47:33.211Z,98693.51
2022-10-14T07:49:47.159Z,98691.55
2022-10-14T07:50:51.626Z,98694.73
2022-10-14T07:51:53.307Z,98692.91
2022-10-14T07:52:58.955Z,98692.34
2022-10-14T07:54:05.483Z,98693.52
2022-10-14T07:55:07.859Z,98694.42
2022-10-14T07:56:09.553Z,98696.09
2022-10-14T07:57:12.464Z,98696.94
2022-10-14T07:58:14.164Z,98698.44
2022-10-14T07:59:20.136Z,98696.21
2022-10-14T08:00:22.051Z,98695.96
2022-10-14T08:01:24.735Z,98694.65
2022-10-14T08:02:26.629Z,98696.73
2022-10-14T08:03:28.378Z,98694.19
2022-10-14T08:04:30.346Z,98698.48
2022-10-14T08:05:39.263Z,98696.20
2022-10-14T08:06:41.301Z,98693.90
2022-10-14T08:07:43.017Z,98693.05
2022-10-14T08:08:45.323Z,98694.63
2022-10-14T08:09:47.563Z,98694.70
2022-10-14T08:10:49.286Z,98690.59
2022-10-14T08:11:50.927Z,98693.20
2022-10-14T08:12:52.579Z,98693.34
2022-10-14T08:13:55.421Z,98688.45
2022-10-14T08:14:59.650Z,98690.48
2022-10-14T08:16:02.251Z,98690.72
2022-10-14T08:17:03.993Z,98689.60
2022-10-14T08:18:10.988Z,98692.02
2022-10-14T08:19:14.824Z,98694.83
2022-10-14T08:20:16.841Z,98693.41
2022-10-14T08:21:21.094Z,98695.20
2022-10-14T08:22:23.022Z,98695.16
2022-10-14T08:23:26.168Z,98695.93
2022-10-14T08:24:27.899Z,98694.30
2022-10-14T08:25:29.658Z,98695.89
2022-10-14T08:26:35.148Z,98694.59
2022-10-14T08:27:36.973Z,98695.13
2022-10-14T08:28:38.648Z,98689.48
2022-10-14T08:29:40.302Z,98687.11
2022-10-14T08:30:42.331Z,98685.94
2022-10-14T08:31:44.039Z,98683.58
2022-10-14T08:32:45.792Z,98683.17
2022-10-14T08:33:47.975Z,98679.98
2022-10-14T08:34:49.623Z,98679.54
2022-10-14T08:35:53.974Z,98680.66
2022-10-14T08:36:56.073Z,98675.95
2022-10-14T08:37:59.951Z,98679.05
2022-10-14T08:39:01.774Z,98678.39
2022-10-14T08:40:05.182Z,98681.55
2022-10-14T08:41:09.722Z,98682.09
2022-10-14T08:42:26.602Z,98677.95
2022-10-14T08:43:42.000Z,98677.59
2022-10-14T08:44:53.315Z,98675.05
2022-10-14T08:46:03.970Z,98674.45
2022-10-14T08:47:15.396Z,98672.17
2022-10-14T08:48:24.609Z,98675.66
2022-10-14T08:49:34.319Z,98674.95
2022-10-14T08:51:01.453Z,98672.92
2022-10-14T08:52:16.630Z,98678.39
2022-10-14T08:53:38.632Z,98675.05
2022-10-14T08:54:45.909Z,98677.66
2022-10-14T08:56:00.212Z,98676.02
2022-10-14T08:57:04.009Z,98677.27
2022-10-14T08:58:19.283Z,98681.21
2022-10-14T08:59:24.139Z,98679.21
2022-10-14T09:00:30.622Z,98680.44
2022-10-14T09:01:35.961Z,98679.77
2022-10-14T09:02:50.529Z,98678.38
2022-10-14T09:03:59.078Z,98679.16
2022-10-14T09:05:02.237Z,98679.34
2022-10-14T09:06:10.462Z,98678.45
2022-10-14T09:07:18.079Z,98677.69
2022-10-14T09:08:30.967Z,98676.56
2022-10-14T09:09:44.578Z,98674.83
2022-10-14T09:10:47.025Z,98674.73
2022-10-14T09:11:59.569Z,98677.43
2022-10-14T09:13:18.423Z,98673.27
2022-10-14T09:14:25.662Z,98675.52
2022-10-14T09:15:48.161Z,98672.16
2022-10-14T09:16:56.934Z,98667.36
2022-10-14T09:18:25.928Z,98666.92
2022-10-14T09:19:44.416Z,98675.17
2022-10-14T09:20:47.144Z,98675.20
2022-10-14T09:21:54.984Z,98674.39
2022-10-14T09:23:20.230Z,98675.50
2022-10-14T09:24:35.693Z,98671.67
2022-10-14T09:25:45.704Z,98669.64
2022-10-14T09:26:51.697Z,98670.17
2022-10-14T09:27:53.399Z,98675.70
2022-10-14T09:28:55.805Z,98668.86
2022-10-14T09:30:02.216Z,98672.41
2022-10-14T09:31:07.002Z,98670.77
2022-10-14T09:32:15.790Z,98674.34
2022-10-14T09:33:20.789Z,98674.71
2022-10-14T09:34:37.031Z,98673.20
2022-10-14T09:35:43.708Z,98674.66
2022-10-14T09:36:49.227Z,98672.27
2022-10-14T09:37:52.174Z,98673.23
2022-10-14T09:38:56.208Z,98674.92
2022-10-14T09:40:13.494Z,98670.71
2022-10-14T09:41:16.945Z,98670.27
2022-10-14T09:42:24.413Z,98668.11
2022-10-14T09:43:26.492Z,98665.53
2022-10-14T09:44:28.168Z,98668.20
2022-10-14T09:45:50.317Z,98670.94
2022-10-14T09:46:57.589Z,98670.33
2022-10-14T09:48:07.828Z,98667.70
2022-10-14T09:49:19.795Z,98667.31
2022-10-14T09:50:30.357Z,98670.55
2022-10-14T09:51:34.908Z,98666.83
2022-10-14T09:52:38.883Z,98670.61
2022-10-14T09:53:52.661Z,98670.80
2022-10-14T09:54:58.711Z,98671.00
2022-10-14T09:56:04.740Z,98665.21
2022-10-14T09:57:08.535Z,98670.37
2022-10-14T09:58:18.171Z,98664.70
2022-10-14T09:59:24.441Z,98664.77
2022-10-14T10:00:30.229Z,98666.49
2022-10-14T10:01:42.553Z,98665.83
2022-10-14T10:02:48.362Z,98662.50
2022-10-14T10:03:52.667Z,98659.55
2022-10-14T10:04:54.933Z,98659.44
2022-10-14T10:06:04.014Z,98660.33
2022-10-14T10:07:26.808Z,98660.67
2022-10-14T10:08:28.624Z,98657.96
2022-10-14T10:09:30.300Z,98658.14
2022-10-14T10:10:35.244Z,98657.44
2022-10-14T10:11:39.672Z,98657.05
2022-10-14T10:12:46.222Z,98655.73
2022-10-14T10:13:48.256Z,98654.65
2022-10-14T10:14:57.929Z,98657.42
2022-10-14T10:16:03.621Z,98657.27
2022-10-14T10:17:08.390Z,98659.77
2022-10-14T10:18:19.089Z,98659.02
2022-10-14T10:19:33.227Z,98659.20
2022-10-14T10:20:36.013Z,98657.23
2022-10-14T10:21:37.827Z,98660.06
2022-10-14T10:22:39.936Z,98656.46
2022-10-14T10:23:58.520Z,98653.05
2022-10-14T10:25:06.578Z,98648.46
2022-10-14T10:26:17.347Z,98645.54
2022-10-14T10:27:24.335Z,98645.14
2022-10-14T10:28:31.894Z,98644.16
2022-10-14T10:29:35.356Z,98643.63
2022-10-14T10:30:59.776Z,98645.51
2022-10-14T10:32:15.997Z,98646.83
2022-10-14T10:33:50.548Z,98643.90
2022-10-14T10:35:22.570Z,98645.60
2022-10-14T10:36:37.845Z,98643.05
2022-10-14T10:38:21.435Z,98645.84
2022-10-14T10:39:31.956Z,98644.99
2022-10-14T10:40:40.960Z,98646.52
2022-10-14T10:41:58.846Z,98649.16
2022-10-14T10:43:21.093Z,98648.55
2022-10-14T10:45:02.197Z,98649.67
2022-10-14T10:46:29.225Z,98646.20
2022-10-14T10:47:51.442Z,98642.32
2022-10-14T10:49:18.022Z,98645.88
2022-10-14T10:50:27.529Z,98644.15
2022-10-14T10:51:55.160Z,98640.58
2022-10-14T10:53:34.184Z,98641.00
2022-10-14T10:54:46.974Z,98640.44
2022-10-14T10:56:26.847Z,98639.44
2022-10-14T10:58:04.798Z,98642.24
2022-10-14T10:59:15.563Z,98641.59
2022-10-14T11:00:21.198Z,98638.02
2022-10-14T11:01:41.296Z,98634.39
2022-10-14T11:02:57.628Z,98635.27
2022-10-14T11:04:05.164Z,98630.91
2022-10-14T11:05:18.107Z,98633.59
2022-10-14T11:07:07.298Z,98633.40
2022-10-14T11:08:47.418Z,98627.67
2022-10-14T11:10:50.219Z,98625.49
2022-10-14T11:12:07.221Z,98621.20
2022-10-14T11:13:36.654Z,98618.98
2022-10-14T11:14:56.396Z,98617.83
2022-10-14T11:16:32.056Z,98620.08
2022-10-14T11:18:03.756Z,98620.89
2022-10-14T11:19:15.940Z,98622.44
2022-10-14T11:20:33.763Z,98617.38
2022-10-14T11:22:10.543Z,98622.02
2022-10-14T11:23:26.944Z,98616.89
2022-10-14T11:24:45.922Z,98609.09
2022-10-14T11:26:06.114Z,98611.67
2022-10-14T11:27:41.247Z,98611.33
2022-10-14T11:29:18.687Z,98605.60
2022-10-14T11:30:56.592Z,98603.30
2022-10-14T11:32:14.356Z,98605.92
2022-10-14T11:33:39.823Z,98609.39
2022-10-14T11:36:52.359Z,98611.17
2022-10-14T11:38:40.456Z,98613.48
2022-10-14T11:40:01.825Z,98615.66
2022-10-14T11:41:17.739Z,98613.61
2022-10-14T11:42:27.774Z,98613.36
2022-10-14T11:43:41.701Z,98616.25
2022-10-14T11:44:44.497Z,98615.37
2022-10-14T11:46:01.161Z,98612.18
2022-10-14T11:47:10.905Z,98611.52
2022-10-14T11:48:32.534Z,98613.83
2022-10-14T11:49:47.417Z,98612.48
2022-10-14T11:50:57.041Z,98611.71
2022-10-14T11:52:18.151Z,98613.17
2022-10-14T11:53:30.572Z,98611.38
2022-10-14T11:54:47.931Z,98608.50
2022-10-14T11:56:02.552Z,98609.06
2022-10-14T11:57:31.766Z,98609.54
2022-10-14T11:58:38.933Z,98604.20
2022-10-14T12:00:36.852Z,98603.89
2022-10-14T12:01:44.370Z,98605.27
2022-10-14T12:03:29.571Z,98602.77
2022-10-14T12:04:36.372Z,98603.04
2022-10-14T12:05:43.666Z,98601.98
2022-10-14T12:07:00.177Z,98604.13
2022-10-14T12:08:07.935Z,98603.25
2022-10-14T12:09:33.001Z,98601.61
2022-10-14T12:11:06.619Z,98599.82
2022-10-14T12:12:13.723Z,98599.33
2022-10-14T12:13:20.695Z,98597.88
2022-10-14T12:14:33.900Z,98600.46
2022-10-14T12:15:42.808Z,98598.92
2022-10-14T12:16:48.742Z,98596.91
2022-10-14T12:18:04.570Z,98597.94
2022-10-14T12:19:12.521Z,98599.73
2022-10-14T12:20:48.446Z,98594.06
2022-10-14T12:22:01.321Z,98595.34
2022-10-14T12:23:08.085Z,98598.13
2022-10-14T12:24:16.424Z,98593.66
2022-10-14T12:25:25.364Z,98593.84
2022-10-14T12:26:45.619Z,98594.42
2022-10-14T12:27:50.171Z,98589.84
2022-10-14T12:28:54.296Z,98591.05
2022-10-14T12:29:58.881Z,98584.35
2022-10-14T12:31:20.254Z,98579.76
2022-10-14T12:32:27.343Z,98578.55
2022-10-14T12:33:29.184Z,98582.60
2022-10-14T12:34:34.937Z,98578.77
2022-10-14T12:35:59.883Z,98576.23
2022-10-14T12:37:27.327Z,98578.36
2022-10-14T12:38:35.712Z,98573.14
2022-10-14T12:39:42.375Z,98574.24
2022-10-14T12:40:44.211Z,98574.91
2022-10-14T12:42:05.575Z,98575.99
2022-10-14T12:43:20.299Z,98577.02
2022-10-14T12:44:28.108Z,98574.44
2022-10-14T12:45:34.823Z,98571.23
2022-10-14T12:46:45.165Z,98572.44
2022-10-14T12:47:47.554Z,98573.17
2022-10-14T12:48:54.787Z,98571.12
2022-10-14T12:50:04.806Z,98569.63
2022-10-14T12:51:14.789Z,98569.27
2022-10-14T12:52:28.034Z,98570.11
2022-10-14T12:53:34.523Z,98568.89
2022-10-14T12:54:48.452Z,98570.31
2022-10-14T12:55:56.864Z,98568.51
2022-10-14T12:57:21.585Z,98568.52
2022-10-14T12:58:29.149Z,98565.62
2022-10-14T12:59:37.987Z,98563.50
2022-10-14T13:00:41.020Z,98560.41
2022-10-14T13:01:44.127Z,98557.30
2022-10-14T13:02:46.976Z,98561.58
2022-10-14T13:04:20.081Z,98559.65
2022-10-14T13:05:41.432Z,98561.52
2022-10-14T13:06:43.432Z,98561.88
2022-10-14T13:07:48.737Z,98558.29
2022-10-14T13:09:12.331Z,98563.28
2022-10-14T13:10:46.488Z,98561.86
2022-10-14T13:11:52.005Z,98563.14
2022-10-14T13:12:54.331Z,98565.51
2022-10-14T13:14:01.557Z,98562.97
2022-10-14T13:15:29.771Z,98562.79
2022-10-14T13:16:31.317Z,98564.60
2022-10-14T13:17:41.813Z,98565.13
2022-10-14T13:18:43.343Z,98562.84
2022-10-14T13:19:46.012Z,98562.18
2022-10-14T13:20:52.837Z,98562.89
2022-10-14T13:21:54.574Z,98560.58
2022-10-14T13:23:22.131Z,98558.94